Charleston, SC

1:30 AM EDT on April 18, 2015 (GMT -0400)
Charleston Executive | | Change Station
CLOSE
Current Station
Airport
Location: Charleston,
Elevation: 16 ft
Nearby Weather Stations

Elev 16 ft 32.70 °N, 80.01 °W | Updated 15 minutes ago

Partly Cloudy
Partly Cloudy
66 °F
Feels Like 66 °F
N
0
Wind Variable Wind from North

Today
High -- | Low -- °F
--% Chance of Precip.
Yesterday
High -- | Low -- °F
Precip. -- in
6:47 AM 7:52 PM
Waning Crescent, 0% visible
Pressure 30.00 in
Visibility 5.0 miles
Clouds Few 12000 ft
Dew Point 66 °F
Humidity 100%
Rainfall 0.00 in
Snow Depth Not available.
UV 0 out of 12
Pollen 8.20 out of 12
Air Quality Not available.
Flu Activity Local Activity
METAR KJZI 180515Z AUTO 00000KT 5SM BR FEW120 19/19 A3000 RMK A02 P000

More Conditions Fewer Conditions

Pressure 30.00 in
Visibility 5.0 miles
Clouds Few 12000 ft
Dew Point 66 °F
Humidity 100%
Rainfall 0.00 in
Snow Depth Not available.
UV 0 out of 12
Pollen 8.20 out of 12
Air Quality Not available.
Flu Activity Local Activity
METAR KJZI 180515Z AUTO 00000KT 5SM BR FEW120 19/19 A3000 RMK A02 P000

More Conditions Fewer Conditions

10-Day Weather Forecast

Almanac

Astronomy

Apr. 18, 2015 Rise Set
Actual Time
Civil Twilight
Nautical Twilight
Astronomical Twilight
Moon
Length of Visible Light
Length of Day
Tomorrow will be .
, % of the Moon is Illuminated

Today's Extremes

State Highs State Lows

Community

WunderPhotos

Upload Photos

1,814,340 photos uploaded!

WunderBlogs® & News

Nearby

Air Quality

  Air Quality AQ Index Pollutant
Not available.

Snow Depth

Station Depth Elevation

Earthquake Activity

City Distance Mag. Time & Date
Minimum magnitude displayed is 2.5.

Coastal Water Temperatures

Place Temperature

Stations

Nearby Weather Stations

Station Location Temp. Windchill Dew Point Humidity Wind Precip. Elev Updated Type